createdAt,value
2023-12-04T00:00:43.431Z,-1.54
2023-12-04T00:03:11.591Z,-1.68
2023-12-04T00:05:47.062Z,-1.51
2023-12-04T00:08:25.525Z,-1.65
2023-12-04T00:10:56.591Z,-1.52
2023-12-04T00:13:26.214Z,-1.67
2023-12-04T00:16:14.613Z,-1.66
2023-12-04T00:18:45.381Z,-1.62
2023-12-04T00:21:17.158Z,-1.63
2023-12-04T00:23:46.020Z,-1.64
2023-12-04T00:26:22.896Z,-1.52
2023-12-04T00:29:00.515Z,-1.38
2023-12-04T00:31:44.158Z,-1.62
2023-12-04T00:34:22.821Z,-1.77
2023-12-04T00:36:56.337Z,-1.56
2023-12-04T00:39:29.576Z,-1.64
2023-12-04T00:41:58.218Z,-1.67
2023-12-04T00:44:27.936Z,-1.64
2023-12-04T00:47:12.194Z,-1.81
2023-12-04T00:49:42.856Z,-1.84
2023-12-04T00:52:13.404Z,-1.67
2023-12-04T00:54:42.429Z,-1.65
2023-12-04T00:59:55.630Z,-1.77
2023-12-04T01:02:28.565Z,-1.92
2023-12-04T01:04:56.979Z,-1.93
2023-12-04T01:07:28.543Z,-2.01
2023-12-04T01:10:03.250Z,-2.14
2023-12-04T01:12:35.572Z,-2.08
2023-12-04T01:15:07.743Z,-1.96
2023-12-04T01:17:49.750Z,-1.88
2023-12-04T01:20:18.243Z,-2.15
2023-12-04T01:22:53.654Z,-2.28
2023-12-04T01:25:23.120Z,-2.33
2023-12-04T01:27:53.703Z,-2.27
2023-12-04T01:30:26.426Z,-2.11
2023-12-04T01:33:01.606Z,-2.16
2023-12-04T01:35:33.365Z,-2.14
2023-12-04T01:38:03.373Z,-2.23
2023-12-04T01:40:34.470Z,-2.17
2023-12-04T01:43:06.890Z,-2.07
2023-12-04T01:45:38.480Z,-2.07
2023-12-04T01:48:21.416Z,-2.15
2023-12-04T01:50:55.881Z,-2.36
2023-12-04T01:53:26.347Z,-2.27
2023-12-04T01:55:59.181Z,-2.13
2023-12-04T01:58:31.920Z,-2.13
2023-12-04T02:01:07.123Z,-2.20
2023-12-04T02:03:43.151Z,-2.25
2023-12-04T02:06:12.946Z,-2.17
2023-12-04T02:08:44.769Z,-2.10
2023-12-04T02:11:13.254Z,-2.05
2023-12-04T02:13:45.125Z,-2.16
2023-12-04T02:16:17.554Z,-2.14
2023-12-04T02:18:56.345Z,-2.23
2023-12-04T02:21:26.615Z,-2.29
2023-12-04T02:24:10.561Z,-2.36
2023-12-04T02:26:47.294Z,-2.29
2023-12-04T02:29:22.050Z,-2.30
2023-12-04T02:32:03.225Z,-2.33
2023-12-04T02:34:37.617Z,-2.46
2023-12-04T02:37:08.037Z,-2.48
2023-12-04T02:39:46.050Z,-2.71
2023-12-04T02:42:18.691Z,-2.68
2023-12-04T02:44:49.616Z,-2.73
2023-12-04T02:47:27.321Z,-2.71
2023-12-04T02:49:59.754Z,-2.86
2023-12-04T02:52:28.405Z,-2.78
2023-12-04T02:55:02.606Z,-2.78
2023-12-04T02:57:34.303Z,-2.82
2023-12-04T03:00:08.132Z,-2.91
2023-12-04T03:02:44.806Z,-3.02
2023-12-04T03:05:14.371Z,-2.90
2023-12-04T03:10:31.444Z,-3.00
2023-12-04T03:13:04.841Z,-3.23
2023-12-04T03:15:35.749Z,-3.15
2023-12-04T03:18:08.211Z,-3.13
2023-12-04T03:20:46.875Z,-3.05
2023-12-04T03:23:17.773Z,-3.28
2023-12-04T03:25:59.366Z,-3.17
2023-12-04T03:28:30.307Z,-3.30
2023-12-04T03:31:04.037Z,-3.25
2023-12-04T03:33:34.681Z,-3.38
2023-12-04T03:36:09.142Z,-3.32
2023-12-04T03:38:40.591Z,-3.35
2023-12-04T03:41:17.336Z,-3.41
2023-12-04T03:43:48.640Z,-3.37
2023-12-04T03:46:19.435Z,-3.38
2023-12-04T03:48:49.312Z,-3.38
2023-12-04T03:51:26.569Z,-3.51
2023-12-04T03:53:57.561Z,-3.47
2023-12-04T03:56:32.205Z,-3.56
2023-12-04T03:59:03.577Z,-3.47
2023-12-04T04:01:37.633Z,-3.40
2023-12-04T04:04:19.581Z,-3.47
2023-12-04T04:06:53.962Z,-3.53
2023-12-04T04:09:29.058Z,-3.77
2023-12-04T04:12:08.638Z,-3.72
2023-12-04T04:14:38.471Z,-3.65
2023-12-04T04:17:06.565Z,-3.77
2023-12-04T04:19:35.318Z,-3.95
2023-12-04T04:22:06.205Z,-3.82
2023-12-04T04:24:40.184Z,-3.81
2023-12-04T04:27:14.032Z,-3.79
2023-12-04T04:29:51.740Z,-3.82
2023-12-04T04:32:25.811Z,-3.81
2023-12-04T04:34:56.547Z,-3.77
2023-12-04T04:37:27.783Z,-3.82
2023-12-04T04:40:04.390Z,-3.75
2023-12-04T04:42:43.400Z,-3.82
2023-12-04T04:45:13.404Z,-3.84
2023-12-04T04:47:58.288Z,-3.85
2023-12-04T04:50:35.339Z,-3.90
2023-12-04T04:53:04.535Z,-4.02
2023-12-04T04:55:47.092Z,-3.93
2023-12-04T04:58:26.077Z,-3.89
2023-12-04T05:00:55.626Z,-3.74
2023-12-04T05:03:26.717Z,-3.81
2023-12-04T05:06:02.914Z,-3.73
2023-12-04T05:08:39.511Z,-3.78
2023-12-04T05:11:08.703Z,-3.94
2023-12-04T05:13:46.692Z,-3.83
2023-12-04T05:16:16.621Z,-3.68
2023-12-04T05:18:50.459Z,-3.68
2023-12-04T05:21:22.295Z,-3.60
2023-12-04T05:23:51.597Z,-3.48
2023-12-04T05:26:21.015Z,-3.68
2023-12-04T05:28:55.515Z,-3.62
2023-12-04T05:31:27.728Z,-3.71
2023-12-04T05:34:19.541Z,-3.82
2023-12-04T05:36:54.138Z,-3.67
2023-12-04T05:39:24.938Z,-3.77
2023-12-04T05:41:54.436Z,-3.80
2023-12-04T05:44:33.218Z,-3.71
2023-12-04T05:47:03.594Z,-3.89
2023-12-04T05:49:34.528Z,-3.82
2023-12-04T05:52:09.042Z,-3.85
2023-12-04T05:54:40.775Z,-3.86
2023-12-04T05:57:10.954Z,-3.86
2023-12-04T05:59:48.667Z,-3.91
2023-12-04T06:02:22.924Z,-3.88
2023-12-04T06:04:59.750Z,-3.85
2023-12-04T06:07:32.548Z,-3.84
2023-12-04T06:10:09.793Z,-3.79
2023-12-04T06:12:39.900Z,-3.86
2023-12-04T06:15:21.532Z,-3.88
2023-12-04T06:17:52.501Z,-3.88
2023-12-04T06:20:27.196Z,-3.94
2023-12-04T06:23:02.666Z,-3.88
2023-12-04T06:25:42.472Z,-3.71
2023-12-04T06:28:14.176Z,-3.89
2023-12-04T06:31:02.196Z,-3.79
2023-12-04T06:33:39.233Z,-3.87
2023-12-04T06:36:09.792Z,-3.86
2023-12-04T06:38:42.131Z,-3.85
2023-12-04T06:41:16.055Z,-3.86
2023-12-04T06:43:53.700Z,-3.77
2023-12-04T06:46:26.671Z,-3.65
2023-12-04T06:49:07.344Z,-3.81
2023-12-04T06:51:49.701Z,-3.87
2023-12-04T06:54:20.148Z,-3.72
2023-12-04T06:56:50.685Z,-3.75
2023-12-04T06:59:25.883Z,-3.70
2023-12-04T07:02:00.920Z,-3.89
2023-12-04T07:04:29.794Z,-3.78
2023-12-04T07:07:06.018Z,-3.93
2023-12-04T07:09:38.213Z,-3.85
2023-12-04T07:12:09.623Z,-3.92
2023-12-04T07:14:46.813Z,-3.93
2023-12-04T07:17:17.777Z,-3.84
2023-12-04T07:19:52.984Z,-3.85
2023-12-04T07:22:26.228Z,-3.94
2023-12-04T07:25:15.809Z,-4.02
2023-12-04T07:27:47.002Z,-4.10
2023-12-04T07:30:19.490Z,-4.07
2023-12-04T07:33:06.366Z,-4.09
2023-12-04T07:35:44.308Z,-4.07
2023-12-04T07:38:16.465Z,-3.90
2023-12-04T07:40:48.306Z,-4.06
2023-12-04T07:43:17.915Z,-4.00
2023-12-04T07:45:55.014Z,-4.09
2023-12-04T07:48:28.567Z,-4.13
2023-12-04T07:51:01.405Z,-4.05
2023-12-04T07:53:31.067Z,-3.99
2023-12-04T07:56:04.499Z,-4.07
2023-12-04T07:58:41.971Z,-4.07
2023-12-04T08:01:16.389Z,-3.92
2023-12-04T08:03:50.470Z,-3.75
2023-12-04T08:06:21.999Z,-3.83
2023-12-04T08:09:03.612Z,-4.06
2023-12-04T08:11:39.993Z,-3.86
2023-12-04T08:14:13.396Z,-3.92
2023-12-04T08:16:42.489Z,-3.67
2023-12-04T08:19:14.702Z,-3.89
2023-12-04T08:21:44.152Z,-3.75
2023-12-04T08:24:22.932Z,-3.63
2023-12-04T08:26:57.719Z,-3.75
2023-12-04T08:29:35.802Z,-3.69
2023-12-04T08:32:12.540Z,-3.58
2023-12-04T08:34:56.608Z,-3.71
2023-12-04T08:37:29.455Z,-3.57
2023-12-04T08:39:59.110Z,-3.69
2023-12-04T08:42:36.314Z,-3.40
2023-12-04T08:45:16.938Z,-3.40
2023-12-04T08:47:51.140Z,-3.39
2023-12-04T08:50:23.624Z,-3.23
2023-12-04T08:52:54.412Z,-2.98
2023-12-04T08:55:23.026Z,-2.97
2023-12-04T08:58:00.555Z,-3.10
2023-12-04T09:00:39.843Z,-2.99
2023-12-04T09:03:18.460Z,-2.91
2023-12-04T09:06:09.754Z,-2.79
2023-12-04T09:11:26.239Z,-2.87
2023-12-04T09:13:59.190Z,-2.74
2023-12-04T09:16:29.973Z,-2.74
2023-12-04T09:18:59.255Z,-2.87
2023-12-04T09:21:31.478Z,-2.77
2023-12-04T09:24:06.505Z,-2.82
2023-12-04T09:26:37.113Z,-2.67
2023-12-04T09:29:10.697Z,-2.72
2023-12-04T09:31:39.559Z,-2.51
2023-12-04T09:34:09.268Z,-2.57
2023-12-04T09:36:42.048Z,-2.60
2023-12-04T09:39:17.766Z,-2.24
2023-12-04T09:41:52.145Z,-2.17
2023-12-04T09:44:23.368Z,-2.17
2023-12-04T09:46:51.728Z,-1.97
2023-12-04T09:49:26.891Z,-1.91
2023-12-04T09:51:59.985Z,-1.84
2023-12-04T09:54:32.578Z,-1.53
2023-12-04T09:57:02.050Z,-1.43
2023-12-04T09:59:34.641Z,-1.44
2023-12-04T10:02:08.792Z,-1.37
2023-12-04T10:04:45.649Z,-1.42
2023-12-04T10:07:22.564Z,-1.43
2023-12-04T10:09:56.777Z,-1.23
2023-12-04T10:12:28.487Z,-1.25
2023-12-04T10:15:13.115Z,-1.14
2023-12-04T10:17:53.695Z,-1.09
2023-12-04T10:20:26.733Z,-1.26
2023-12-04T10:23:02.695Z,-0.80
2023-12-04T10:25:44.624Z,-1.06
2023-12-04T10:28:16.120Z,-0.70
2023-12-04T10:30:48.017Z,-0.76
2023-12-04T10:33:17.086Z,-0.66
2023-12-04T10:35:50.529Z,-0.64
2023-12-04T10:38:20.938Z,-0.44
2023-12-04T10:40:52.780Z,-0.51
2023-12-04T10:43:23.169Z,-0.59
2023-12-04T10:45:52.912Z,-0.40
2023-12-04T10:48:28.103Z,-0.40
2023-12-04T10:50:59.456Z,-0.31
2023-12-04T10:53:31.561Z,-0.36
2023-12-04T10:56:11.731Z,-0.31
2023-12-04T10:58:42.356Z,-0.19
2023-12-04T11:01:15.938Z,-0.07
2023-12-04T11:03:47.546Z,-0.10
2023-12-04T11:06:21.538Z,-0.10
2023-12-04T11:08:53.365Z,0.11
2023-12-04T11:11:28.129Z,0.38
2023-12-04T11:14:01.663Z,0.23
2023-12-04T11:16:38.712Z,0.49
2023-12-04T11:19:21.731Z,0.54
2023-12-04T11:21:52.887Z,0.76
2023-12-04T11:24:27.629Z,1.02
2023-12-04T11:26:57.781Z,0.91
2023-12-04T11:29:38.907Z,0.89
2023-12-04T11:32:08.123Z,0.81
2023-12-04T11:34:38.127Z,1.03
2023-12-04T11:40:00.491Z,1.14
2023-12-04T11:42:39.838Z,1.24
2023-12-04T11:45:16.652Z,1.34
2023-12-04T11:48:07.921Z,1.20
2023-12-04T11:50:45.852Z,1.32
2023-12-04T11:53:19.310Z,1.32
2023-12-04T11:56:00.493Z,1.35
2023-12-04T11:58:31.346Z,1.34
2023-12-04T12:01:03.047Z,1.46
2023-12-04T12:03:39.452Z,1.40
2023-12-04T12:06:22.521Z,1.33
2023-12-04T12:08:52.715Z,1.51
2023-12-04T12:11:29.820Z,1.89
2023-12-04T12:14:06.766Z,1.81
2023-12-04T12:16:42.458Z,1.64
2023-12-04T12:19:20.267Z,1.33
2023-12-04T12:21:50.555Z,1.41
2023-12-04T12:24:20.458Z,1.72
2023-12-04T12:26:52.621Z,1.56
2023-12-04T12:29:26.507Z,1.48
2023-12-04T12:31:57.485Z,1.48
2023-12-04T12:34:28.715Z,1.36
2023-12-04T12:36:56.985Z,1.74
2023-12-04T12:39:27.928Z,1.56
2023-12-04T12:42:00.500Z,1.48
2023-12-04T12:44:31.482Z,1.60
2023-12-04T12:47:02.162Z,1.42
2023-12-04T12:49:39.183Z,1.40
2023-12-04T12:52:16.766Z,1.50
2023-12-04T12:54:46.831Z,1.62
2023-12-04T12:57:20.245Z,1.55
2023-12-04T12:59:53.268Z,1.34
2023-12-04T13:02:24.211Z,1.24
2023-12-04T13:04:58.426Z,1.39
2023-12-04T13:07:27.302Z,1.31
2023-12-04T13:09:56.326Z,1.56
2023-12-04T13:12:31.674Z,1.43
2023-12-04T13:15:03.238Z,1.36
2023-12-04T13:17:32.999Z,1.26
2023-12-04T13:20:02.063Z,1.24
2023-12-04T13:22:33.957Z,1.25
2023-12-04T13:25:13.812Z,1.20
2023-12-04T13:27:56.063Z,1.16
2023-12-04T13:30:26.292Z,1.00
2023-12-04T13:32:57.378Z,1.11
2023-12-04T13:35:37.461Z,1.08
2023-12-04T13:38:15.296Z,1.13
2023-12-04T13:40:56.173Z,1.35
2023-12-04T13:43:52.431Z,1.40
2023-12-04T13:46:22.156Z,1.17
2023-12-04T13:48:53.975Z,1.49
2023-12-04T13:51:31.665Z,1.35
2023-12-04T13:54:21.899Z,1.40
2023-12-04T13:57:05.165Z,1.16
2023-12-04T13:59:41.068Z,1.56
2023-12-04T14:02:16.109Z,1.28
2023-12-04T14:04:45.933Z,1.12
2023-12-04T14:07:18.043Z,1.04
2023-12-04T14:09:49.608Z,1.10
2023-12-04T14:12:19.364Z,1.08
2023-12-04T14:15:00.005Z,1.30
2023-12-04T14:17:29.123Z,1.01
2023-12-04T14:20:01.189Z,1.13
2023-12-04T14:22:32.103Z,1.12
2023-12-04T14:25:09.856Z,0.97
2023-12-04T14:27:41.644Z,0.90
2023-12-04T14:30:17.188Z,0.94
2023-12-04T14:32:48.379Z,0.97
2023-12-04T14:35:29.904Z,1.26
2023-12-04T14:38:00.218Z,0.97
2023-12-04T14:40:31.731Z,1.00
2023-12-04T14:43:05.661Z,0.88
2023-12-04T14:45:38.278Z,1.11
2023-12-04T14:48:19.922Z,0.85
2023-12-04T14:51:02.417Z,0.89
2023-12-04T14:53:48.637Z,0.83
2023-12-04T14:56:34.325Z,1.03
2023-12-04T14:59:20.410Z,0.82
2023-12-04T15:02:11.945Z,0.75
2023-12-04T15:05:14.027Z,0.77
2023-12-04T15:08:04.410Z,0.95
2023-12-04T15:13:46.589Z,1.05
2023-12-04T15:16:31.036Z,0.94
2023-12-04T15:19:36.758Z,0.77
2023-12-04T15:22:14.026Z,0.64
2023-12-04T15:24:42.336Z,0.59
2023-12-04T15:27:16.074Z,0.81
2023-12-04T15:29:47.081Z,0.86
2023-12-04T15:32:22.519Z,0.84
2023-12-04T15:35:10.905Z,0.89
2023-12-04T15:37:43.578Z,0.86
2023-12-04T15:40:20.866Z,0.72
2023-12-04T15:42:52.820Z,0.67
2023-12-04T15:45:23.353Z,1.00
2023-12-04T15:47:53.547Z,0.57
2023-12-04T15:50:26.099Z,0.83
2023-12-04T15:52:57.170Z,0.81
2023-12-04T15:55:27.480Z,0.98
2023-12-04T15:57:59.441Z,0.69
2023-12-04T16:00:34.936Z,1.08
2023-12-04T16:03:11.895Z,0.78
2023-12-04T16:05:46.601Z,1.21
2023-12-04T16:08:17.427Z,0.75
2023-12-04T16:10:47.745Z,0.81
2023-12-04T16:13:17.480Z,0.89
2023-12-04T16:15:59.101Z,0.76
2023-12-04T16:18:30.449Z,0.72
2023-12-04T16:21:02.770Z,0.74
2023-12-04T16:23:39.472Z,0.84
2023-12-04T16:26:12.994Z,0.70
2023-12-04T16:28:44.241Z,0.88
2023-12-04T16:31:25.536Z,0.70
2023-12-04T16:33:56.761Z,0.71
2023-12-04T16:36:35.539Z,0.94
2023-12-04T16:39:06.802Z,0.92
2023-12-04T16:41:41.121Z,0.82
2023-12-04T16:44:17.464Z,0.70
2023-12-04T16:46:50.803Z,0.63
2023-12-04T16:49:21.404Z,0.85
2023-12-04T16:52:16.278Z,0.67
2023-12-04T16:54:52.930Z,0.91
2023-12-04T16:57:31.432Z,0.73
2023-12-04T17:00:04.757Z,0.98
2023-12-04T17:02:35.775Z,0.74
2023-12-04T17:05:10.076Z,0.84
2023-12-04T17:07:44.538Z,0.77
2023-12-04T17:10:19.248Z,0.65
2023-12-04T17:12:49.793Z,0.50
2023-12-04T17:15:19.752Z,0.74
2023-12-04T17:17:57.256Z,0.93
2023-12-04T17:20:26.736Z,0.80
2023-12-04T17:23:09.031Z,0.59
2023-12-04T17:25:46.012Z,0.62
2023-12-04T17:28:16.545Z,0.76
2023-12-04T17:30:48.341Z,0.93
2023-12-04T17:33:19.242Z,1.20
2023-12-04T17:35:53.484Z,0.90
2023-12-04T17:38:35.411Z,0.70
2023-12-04T17:41:09.973Z,0.89
2023-12-04T17:43:40.501Z,0.74
2023-12-04T17:46:12.529Z,0.95
2023-12-04T17:48:45.281Z,0.60
2023-12-04T17:51:19.654Z,0.58
2023-12-04T17:53:57.576Z,0.69
2023-12-04T17:56:39.957Z,0.60
2023-12-04T17:59:20.287Z,0.70
2023-12-04T18:01:54.791Z,0.86
2023-12-04T18:04:25.979Z,0.50
2023-12-04T18:07:06.641Z,0.71
2023-12-04T18:09:45.773Z,0.69
2023-12-04T18:12:19.326Z,1.01
2023-12-04T18:15:02.550Z,0.88
2023-12-04T18:17:39.026Z,0.75
2023-12-04T18:20:08.982Z,0.89
2023-12-04T18:22:43.772Z,0.73
2023-12-04T18:25:32.562Z,0.57
2023-12-04T18:28:04.515Z,0.88
2023-12-04T18:30:40.202Z,0.63
2023-12-04T18:33:15.982Z,0.66
2023-12-04T18:36:00.041Z,0.56
2023-12-04T18:38:38.972Z,0.80
2023-12-04T18:41:15.197Z,0.77
2023-12-04T18:43:53.351Z,0.79
2023-12-04T18:46:30.485Z,0.76
2023-12-04T18:49:00.273Z,0.69
2023-12-04T18:51:38.978Z,0.79
2023-12-04T18:54:10.297Z,0.62
2023-12-04T18:56:48.758Z,0.57
2023-12-04T18:59:19.540Z,0.42
2023-12-04T19:01:54.780Z,0.50
2023-12-04T19:04:26.568Z,0.65
2023-12-04T19:07:02.746Z,0.72
2023-12-04T19:09:34.699Z,0.73
2023-12-04T19:12:14.847Z,0.80
2023-12-04T19:14:55.882Z,0.87
2023-12-04T19:17:32.072Z,0.84
2023-12-04T19:20:11.369Z,0.60
2023-12-04T19:25:49.256Z,0.54
2023-12-04T19:28:42.533Z,0.42
2023-12-04T19:31:21.610Z,0.54
2023-12-04T19:34:01.737Z,0.72
2023-12-04T19:36:44.074Z,0.58
2023-12-04T19:39:28.066Z,0.85
2023-12-04T19:42:11.823Z,0.74
2023-12-04T19:44:51.308Z,0.52
2023-12-04T19:47:36.201Z,0.90
2023-12-04T19:50:15.000Z,1.05
2023-12-04T19:52:51.347Z,0.49
2023-12-04T19:55:25.753Z,0.39
2023-12-04T19:58:02.315Z,0.39
2023-12-04T20:00:47.042Z,0.47
2023-12-04T20:03:32.999Z,0.47
2023-12-04T20:06:05.533Z,0.56
2023-12-04T20:08:55.944Z,0.89
2023-12-04T20:11:29.754Z,0.85
2023-12-04T20:14:17.668Z,0.71
2023-12-04T20:16:56.158Z,0.79
2023-12-04T20:19:31.709Z,0.65
2023-12-04T20:22:14.751Z,0.77
2023-12-04T20:24:49.254Z,0.82
2023-12-04T20:27:39.125Z,0.75
2023-12-04T20:30:16.199Z,0.53
2023-12-04T20:33:04.068Z,0.51
2023-12-04T20:35:40.157Z,0.84
2023-12-04T20:38:21.056Z,0.58
2023-12-04T20:41:01.258Z,0.85
2023-12-04T20:43:40.413Z,0.65
2023-12-04T20:46:17.660Z,0.47
2023-12-04T20:48:54.562Z,0.63
2023-12-04T20:51:33.460Z,0.51
2023-12-04T20:54:16.198Z,0.75
2023-12-04T20:56:50.202Z,0.82
2023-12-04T20:59:20.227Z,0.65
2023-12-04T21:01:53.821Z,0.91
2023-12-04T21:04:36.692Z,0.81
2023-12-04T21:07:15.151Z,0.42
2023-12-04T21:09:54.469Z,0.73
2023-12-04T21:12:37.310Z,0.63
2023-12-04T21:15:14.307Z,0.76
2023-12-04T21:17:46.916Z,0.88
2023-12-04T21:20:29.540Z,0.95
2023-12-04T21:23:02.383Z,0.47
2023-12-04T21:25:34.526Z,0.36
2023-12-04T21:28:07.143Z,0.74
2023-12-04T21:30:45.847Z,0.55
2023-12-04T21:33:26.582Z,0.44
2023-12-04T21:36:20.262Z,0.52
2023-12-04T21:38:54.829Z,0.36
2023-12-04T21:41:40.670Z,0.26
2023-12-04T21:44:25.653Z,0.36
2023-12-04T21:46:57.204Z,0.65
2023-12-04T21:49:27.652Z,0.49
2023-12-04T21:52:01.445Z,0.36
2023-12-04T21:54:33.211Z,0.69
2023-12-04T21:57:11.390Z,0.39
2023-12-04T22:00:01.862Z,0.35
2023-12-04T22:02:37.294Z,0.39
2023-12-04T22:05:06.699Z,0.56
2023-12-04T22:07:49.060Z,0.48
2023-12-04T22:10:17.616Z,0.58
2023-12-04T22:12:51.128Z,0.34
2023-12-04T22:15:19.950Z,0.24
2023-12-04T22:17:55.481Z,0.40
2023-12-04T22:20:25.853Z,0.46
2023-12-04T22:23:14.040Z,0.12
2023-12-04T22:25:43.562Z,0.20
2023-12-04T22:28:16.134Z,0.21
2023-12-04T22:30:53.887Z,-0.03
2023-12-04T22:33:28.214Z,0.17
2023-12-04T22:36:00.793Z,0.16
2023-12-04T22:38:43.222Z,0.36
2023-12-04T22:41:22.994Z,0.07
2023-12-04T22:44:04.183Z,0.09
2023-12-04T22:46:49.729Z,0.25
2023-12-04T22:49:30.377Z,0.07
2023-12-04T22:52:02.195Z,0.17
2023-12-04T22:54:45.056Z,0.19
2023-12-04T22:59:59.685Z,0.13
2023-12-04T23:02:31.650Z,0.25
2023-12-04T23:05:08.300Z,0.03
2023-12-04T23:07:43.256Z,0.14
2023-12-04T23:10:23.797Z,0.29
2023-12-04T23:13:01.330Z,0.15
2023-12-04T23:15:41.451Z,0.11
2023-12-04T23:18:11.034Z,0.18
2023-12-04T23:20:41.420Z,0.14
2023-12-04T23:23:09.441Z,0.03
2023-12-04T23:25:55.172Z,0.03
2023-12-04T23:28:25.948Z,0.03
2023-12-04T23:30:54.759Z,0.06
2023-12-04T23:33:29.559Z,0.15
2023-12-04T23:36:06.043Z,0.21
2023-12-04T23:38:38.679Z,-0.03
2023-12-04T23:41:25.272Z,0.25
2023-12-04T23:43:56.447Z,0.18
2023-12-04T23:46:29.753Z,0.03
2023-12-04T23:49:06.083Z,-0.01
2023-12-04T23:51:41.194Z,0.04
2023-12-04T23:54:22.208Z,0.21
2023-12-04T23:57:05.816Z,0.23
2023-12-04T23:59:53.008Z,0.16
